Main page
METAR-TAF:

METAR-TAF

Airports :

London-Heathrow, England

Heathrow Airport

latitude: 51-29N, longitude: 000-27W, elevation: 24 m

Current weather observation

The report was made 32 minutes ago, at 04:20 UTC
Wind 17 kt from the West
Temperature 11°C
Humidity 71%
Pressure 1009 hPa
Visibility 10 km or more
Broken clouds at a height of 4400 ft

METAR: EGLL 220420Z AUTO 26017KT 9999 BKN044 11/06 Q1009 NOSIG

Time: 05:52 (04:52 UTC)

Forecast

The report was made 5 hours and 53 minutes ago, at 22:59 UTC
Forecast valid from 22 at 00 UTC to 23 at 06 UTC
Wind 14 kt from the West
Visibility 10 km or more
Scattered clouds at a height of 4000 ft
Probability 30% :
Temporary
from 22 at 00 UTC to 22 at 08 UTC
Wind 16 kt from the West with gusts up to 28 kt
Visibility: 7000 m
Broken clouds at a height of 1400 ft
rain
Temporary
from 22 at 08 UTC to 22 at 16 UTC
Wind 18 kt from the West with gusts up to 30 kt

TAF: EGLL 212259Z 2200/2306 26014KT 9999 SCT040 PROB30 TEMPO 2200/2208 26016G28KT 7000 RA BKN014 TEMPO 2208/2216 28018G30KT

Weather observations and forecasts of more than 4000 airports (METAR and TAF reports).

The available stations are represented by yellow and red dots on the map.

Hover mouse over dot to see the name of the station.

Then click to see weather observations and forecasts.

To change the map : click on the green buttons with a black cross to zoom in, on the green button with a dash to zoom out, or on the green arrows for adjacent maps.


METAR-TAF: